createdAt,value
2018-09-08T00:01:12.652Z,99.90
2018-09-08T00:03:42.502Z,99.90
2018-09-08T00:06:12.449Z,99.90
2018-09-08T00:08:42.760Z,99.90
2018-09-08T00:11:12.613Z,99.90
2018-09-08T00:13:43.213Z,99.90
2018-09-08T00:16:18.093Z,99.90
2018-09-08T00:18:54.453Z,99.90
2018-09-08T00:21:30.414Z,99.90
2018-09-08T00:24:05.443Z,99.90
2018-09-08T00:26:34.763Z,99.90
2018-09-08T00:29:14.828Z,99.90
2018-09-08T00:31:44.993Z,99.90
2018-09-08T00:34:14.757Z,99.90
2018-09-08T00:36:45.579Z,99.90
2018-09-08T00:39:15.603Z,99.90
2018-09-08T00:41:46.561Z,99.90
2018-09-08T00:44:16.370Z,99.90
2018-09-08T00:46:46.662Z,99.90
2018-09-08T00:49:16.655Z,99.90
2018-09-08T00:51:47.516Z,99.90
2018-09-08T00:54:17.648Z,99.90
2018-09-08T00:56:47.391Z,99.90
2018-09-08T00:59:18.089Z,99.90
2018-09-08T01:01:48.414Z,99.90
2018-09-08T01:04:18.357Z,99.90
2018-09-08T01:06:48.455Z,99.90
2018-09-08T01:09:18.190Z,99.90
2018-09-08T01:11:48.723Z,99.90
2018-09-08T01:14:18.363Z,99.90
2018-09-08T01:16:48.471Z,99.90
2018-09-08T01:19:19.468Z,99.90
2018-09-08T01:21:49.161Z,99.90
2018-09-08T01:24:19.498Z,99.90
2018-09-08T01:26:49.273Z,99.90
2018-09-08T01:29:19.765Z,99.90
2018-09-08T01:31:49.760Z,99.90
2018-09-08T01:34:20.296Z,99.90
2018-09-08T01:36:50.057Z,99.90
2018-09-08T01:39:20.118Z,99.90
2018-09-08T01:41:50.255Z,99.90
2018-09-08T01:44:20.573Z,99.90
2018-09-08T01:46:50.740Z,99.90
2018-09-08T01:49:20.553Z,99.90
2018-09-08T01:51:50.262Z,99.90
2018-09-08T01:54:20.130Z,99.90
2018-09-08T01:56:50.206Z,99.90
2018-09-08T01:59:21.430Z,99.90
2018-09-08T02:01:51.530Z,99.90
2018-09-08T02:04:21.595Z,99.90
2018-09-08T02:06:51.309Z,99.90
2018-09-08T02:09:21.267Z,99.90
2018-09-08T02:11:51.622Z,99.90
2018-09-08T02:14:21.910Z,99.90
2018-09-08T02:16:52.193Z,99.90
2018-09-08T02:19:22.237Z,99.90
2018-09-08T02:21:52.581Z,99.90
2018-09-08T02:24:22.782Z,99.90
2018-09-08T02:26:52.403Z,99.90
2018-09-08T02:29:22.727Z,99.90
2018-09-08T02:31:52.434Z,99.90
2018-09-08T02:34:21.943Z,99.90
2018-09-08T02:36:52.420Z,99.90
2018-09-08T02:39:22.231Z,99.90
2018-09-08T02:41:51.922Z,99.90
2018-09-08T02:44:22.907Z,99.90
2018-09-08T02:46:52.777Z,99.90
2018-09-08T02:49:22.712Z,99.90
2018-09-08T02:51:52.116Z,99.90
2018-09-08T02:54:20.656Z,99.90
2018-09-08T02:56:48.798Z,99.90
2018-09-08T02:59:16.965Z,99.90
2018-09-08T03:01:44.825Z,99.90
2018-09-08T03:04:12.932Z,99.90
2018-09-08T03:06:41.323Z,99.90
2018-09-08T03:09:09.810Z,99.90
2018-09-08T03:11:38.738Z,99.90
2018-09-08T03:14:07.178Z,99.90
2018-09-08T03:16:35.515Z,99.90
2018-09-08T03:19:05.085Z,99.90
2018-09-08T03:21:33.097Z,99.90
2018-09-08T03:24:01.318Z,99.90
2018-09-08T03:26:29.783Z,99.90
2018-09-08T03:28:58.684Z,99.90
2018-09-08T03:31:27.063Z,99.90
2018-09-08T03:33:55.334Z,99.90
2018-09-08T03:36:23.832Z,99.90
2018-09-08T03:38:53.448Z,99.90
2018-09-08T03:41:21.510Z,99.90
2018-09-08T03:43:50.045Z,99.90
2018-09-08T03:46:18.370Z,99.90
2018-09-08T03:48:46.765Z,99.90
2018-09-08T03:51:14.870Z,99.90
2018-09-08T03:53:43.454Z,99.90
2018-09-08T03:56:13.381Z,99.90
2018-09-08T03:58:41.697Z,99.90
2018-09-08T04:01:10.226Z,99.90
2018-09-08T04:03:40.344Z,99.90
2018-09-08T04:06:10.690Z,99.90
2018-09-08T04:08:40.948Z,99.90
2018-09-08T04:11:10.825Z,99.90
2018-09-08T04:13:41.790Z,99.90
2018-09-08T04:16:11.675Z,99.90
2018-09-08T04:18:41.534Z,99.90
2018-09-08T04:21:11.643Z,99.90
2018-09-08T04:23:41.854Z,99.90
2018-09-08T04:26:11.893Z,99.90
2018-09-08T04:28:41.854Z,99.90
2018-09-08T04:31:11.706Z,99.90
2018-09-08T04:33:41.518Z,99.90
2018-09-08T04:36:11.303Z,99.90
2018-09-08T04:38:41.674Z,99.90
2018-09-08T04:41:11.641Z,99.90
2018-09-08T04:43:41.554Z,99.90
2018-09-08T04:46:11.211Z,99.90
2018-09-08T04:48:41.037Z,99.90
2018-09-08T04:51:10.994Z,99.90
2018-09-08T04:53:40.985Z,99.90
2018-09-08T04:56:12.401Z,99.90
2018-09-08T04:58:42.437Z,99.90
2018-09-08T05:01:12.282Z,99.90
2018-09-08T05:03:42.219Z,99.90
2018-09-08T05:06:12.162Z,99.90
2018-09-08T05:08:41.891Z,99.90
2018-09-08T05:11:12.338Z,99.90
2018-09-08T05:13:42.261Z,99.90
2018-09-08T05:16:12.106Z,99.90
2018-09-08T05:18:41.948Z,99.90
2018-09-08T05:21:11.981Z,99.90
2018-09-08T05:23:41.899Z,99.90
2018-09-08T05:26:12.557Z,99.90
2018-09-08T05:28:54.581Z,99.90
2018-09-08T05:31:24.416Z,99.90
2018-09-08T05:33:54.785Z,99.90
2018-09-08T05:36:25.175Z,99.90
2018-09-08T05:38:55.381Z,99.90
2018-09-08T05:41:25.623Z,99.90
2018-09-08T05:43:56.170Z,99.90
2018-09-08T05:46:29.803Z,99.90
2018-09-08T05:49:01.765Z,99.90
2018-09-08T05:51:34.315Z,99.90
2018-09-08T05:54:07.000Z,99.90
2018-09-08T05:56:37.001Z,99.90
2018-09-08T05:59:06.874Z,99.90
2018-09-08T06:01:37.254Z,99.90
2018-09-08T06:04:07.394Z,99.90
2018-09-08T06:06:37.675Z,99.90
2018-09-08T06:09:08.876Z,99.90
2018-09-08T06:11:39.855Z,99.90
2018-09-08T06:14:09.766Z,99.90
2018-09-08T06:16:39.761Z,99.90
2018-09-08T06:19:09.789Z,99.90
2018-09-08T06:21:40.739Z,99.90
2018-09-08T06:24:11.509Z,99.90
2018-09-08T06:26:41.975Z,99.90
2018-09-08T06:29:12.455Z,99.90
2018-09-08T06:31:42.737Z,99.90
2018-09-08T06:34:12.606Z,99.90
2018-09-08T06:36:43.581Z,99.90
2018-09-08T06:39:14.859Z,99.90
2018-09-08T06:41:45.253Z,99.90
2018-09-08T06:44:15.054Z,99.90
2018-09-08T06:46:44.894Z,99.90
2018-09-08T06:49:15.166Z,99.90
2018-09-08T06:51:45.602Z,99.90
2018-09-08T06:54:15.868Z,99.90
2018-09-08T06:56:45.607Z,99.90
2018-09-08T06:59:15.636Z,99.90
2018-09-08T07:01:45.316Z,99.90
2018-09-08T07:04:15.646Z,99.90
2018-09-08T07:06:46.444Z,99.90
2018-09-08T07:09:16.495Z,99.90
2018-09-08T07:11:46.444Z,99.90
2018-09-08T07:14:16.457Z,99.90
2018-09-08T07:16:46.578Z,99.90
2018-09-08T07:19:16.422Z,99.90
2018-09-08T07:21:46.246Z,99.90
2018-09-08T07:24:16.130Z,99.90
2018-09-08T07:26:46.075Z,99.90
2018-09-08T07:29:15.795Z,99.90
2018-09-08T07:31:45.827Z,99.90
2018-09-08T07:34:15.469Z,99.90
2018-09-08T07:36:45.905Z,99.90
2018-09-08T07:39:15.803Z,99.90
2018-09-08T07:41:46.885Z,99.90
2018-09-08T07:44:17.396Z,99.90
2018-09-08T07:46:47.294Z,99.90
2018-09-08T07:49:17.584Z,99.90
2018-09-08T07:51:47.441Z,99.90
2018-09-08T07:54:17.381Z,99.90
2018-09-08T07:56:47.350Z,99.90
2018-09-08T07:59:18.123Z,99.90
2018-09-08T08:01:47.930Z,99.90
2018-09-08T08:04:18.126Z,99.90
2018-09-08T08:06:47.930Z,99.90
2018-09-08T08:09:18.250Z,99.90
2018-09-08T08:11:48.540Z,99.90
2018-09-08T08:14:18.590Z,99.90
2018-09-08T08:16:48.580Z,99.90
2018-09-08T08:19:18.350Z,99.90
2018-09-08T08:21:48.133Z,99.90
2018-09-08T08:24:18.722Z,99.90
2018-09-08T08:26:49.030Z,99.90
2018-09-08T08:29:19.181Z,99.90
2018-09-08T08:31:49.465Z,99.90
2018-09-08T08:34:19.562Z,99.90
2018-09-08T08:36:49.789Z,99.90
2018-09-08T08:39:20.621Z,99.90
2018-09-08T08:41:50.890Z,99.90
2018-09-08T08:44:21.287Z,99.90
2018-09-08T08:46:51.129Z,99.90
2018-09-08T08:49:24.277Z,99.90
2018-09-08T08:52:05.196Z,99.90
2018-09-08T08:54:41.957Z,99.90
2018-09-08T08:57:12.043Z,99.90
2018-09-08T08:59:42.179Z,99.90
2018-09-08T09:02:11.972Z,99.90
2018-09-08T09:04:42.974Z,99.90
2018-09-08T09:07:14.077Z,99.90
2018-09-08T09:09:44.715Z,99.90
2018-09-08T09:12:14.869Z,99.90
2018-09-08T09:14:45.114Z,99.90
2018-09-08T09:17:15.435Z,99.90
2018-09-08T09:19:57.664Z,99.90
2018-09-08T09:22:38.543Z,99.90
2018-09-08T09:25:09.492Z,99.90
2018-09-08T09:27:49.684Z,99.90
2018-09-08T09:30:20.378Z,99.90
2018-09-08T09:32:50.668Z,99.90
2018-09-08T09:35:22.301Z,99.90
2018-09-08T09:37:52.678Z,99.90
2018-09-08T09:40:23.158Z,99.90
2018-09-08T09:42:54.448Z,99.90
2018-09-08T09:45:24.647Z,99.90
2018-09-08T09:47:55.350Z,99.90
2018-09-08T09:50:24.889Z,99.90
2018-09-08T09:52:54.690Z,99.90
2018-09-08T09:55:24.434Z,99.90
2018-09-08T09:57:55.121Z,99.90
2018-09-08T10:00:30.921Z,99.90
2018-09-08T10:03:10.768Z,99.90
2018-09-08T10:05:41.315Z,99.90
2018-09-08T10:08:11.567Z,99.90
2018-09-08T10:10:42.526Z,99.90
2018-09-08T10:13:12.738Z,99.90
2018-09-08T10:15:43.204Z,99.10
2018-09-08T10:18:15.031Z,99.70
2018-09-08T10:20:45.355Z,99.90
2018-09-08T10:23:16.170Z,99.90
2018-09-08T10:25:47.568Z,99.10
2018-09-08T10:28:17.966Z,99.30
2018-09-08T10:30:49.000Z,98.60
2018-09-08T10:33:19.429Z,99.10
2018-09-08T10:35:49.373Z,99.20
2018-09-08T10:38:19.655Z,98.50
2018-09-08T10:40:50.299Z,98.40
2018-09-08T10:43:20.140Z,97.10
2018-09-08T10:45:50.028Z,97.40
2018-09-08T10:48:19.881Z,98.10
2018-09-08T10:50:49.901Z,98.50
2018-09-08T10:53:20.163Z,98.10
2018-09-08T10:55:49.945Z,97.60
2018-09-08T10:58:20.052Z,97.30
2018-09-08T11:00:50.069Z,97.50
2018-09-08T11:03:20.165Z,97.30
2018-09-08T11:05:50.673Z,97.80
2018-09-08T11:08:20.372Z,98.40
2018-09-08T11:10:50.201Z,97.90
2018-09-08T11:13:20.380Z,98.00
2018-09-08T11:15:50.249Z,98.80
2018-09-08T11:18:20.680Z,98.00
2018-09-08T11:20:50.947Z,98.30
2018-09-08T11:23:21.325Z,97.70
2018-09-08T11:25:51.861Z,97.40
2018-09-08T11:28:22.085Z,97.80
2018-09-08T11:30:52.091Z,98.20
2018-09-08T11:36:14.409Z,98.70
2018-09-08T11:38:45.222Z,98.40
2018-09-08T11:41:15.394Z,98.20
2018-09-08T11:43:45.997Z,98.30
2018-09-08T11:46:15.478Z,98.40
2018-09-08T11:48:45.776Z,98.50
2018-09-08T11:51:15.614Z,98.40
2018-09-08T12:21:14.925Z,97.50
2018-09-08T12:23:56.073Z,97.70
2018-09-08T12:26:42.631Z,97.40
2018-09-08T12:29:12.122Z,97.70
2018-09-08T12:31:41.730Z,98.50
2018-09-08T12:34:13.526Z,97.60
2018-09-08T12:36:43.131Z,97.00
2018-09-08T12:39:12.773Z,97.10
2018-09-08T12:41:43.364Z,96.70
2018-09-08T12:44:12.808Z,96.90
2018-09-08T12:46:42.694Z,97.20
2018-09-08T12:49:14.349Z,97.70
2018-09-08T12:51:43.970Z,97.70
2018-09-08T12:54:13.401Z,97.60
2018-09-08T12:56:42.949Z,97.60
2018-09-08T12:59:12.631Z,97.90
2018-09-08T13:01:42.810Z,98.10
2018-09-08T13:04:27.888Z,97.40
2018-09-08T13:06:57.356Z,96.60
2018-09-08T13:09:26.987Z,96.80
2018-09-08T13:12:01.931Z,96.60
2018-09-08T13:14:34.466Z,97.00
2018-09-08T13:17:08.010Z,97.10
2018-09-08T13:20:14.340Z,97.00
2018-09-08T13:22:47.705Z,96.50
2018-09-08T13:25:29.951Z,96.20
2018-09-08T13:28:02.983Z,95.90
2018-09-08T13:30:33.961Z,96.00
2018-09-08T13:33:06.944Z,96.40
2018-09-08T13:35:37.919Z,96.70
2018-09-08T13:38:08.808Z,96.60
2018-09-08T13:40:41.315Z,97.00
2018-09-08T13:43:11.038Z,96.80
2018-09-08T13:45:56.093Z,96.60
2018-09-08T13:48:40.938Z,97.10
2018-09-08T13:57:19.428Z,96.30
2018-09-08T14:00:16.554Z,95.60
2018-09-08T14:03:10.092Z,95.80
2018-09-08T14:05:57.374Z,95.60
2018-09-08T14:09:13.503Z,94.10
2018-09-08T14:15:01.266Z,95.20
2018-09-08T14:17:31.330Z,95.30
2018-09-08T14:20:11.075Z,95.80
2018-09-08T14:22:43.594Z,95.20
2018-09-08T14:25:14.388Z,95.20
2018-09-08T14:27:45.992Z,95.70
2018-09-08T14:30:16.161Z,95.80
2018-09-08T14:32:48.334Z,95.40
2018-09-08T14:35:19.513Z,95.70
2018-09-08T14:37:51.579Z,95.10
2018-09-08T14:40:25.855Z,95.20
2018-09-08T14:42:59.665Z,95.10
2018-09-08T14:45:33.425Z,95.40
2018-09-08T14:48:04.772Z,95.40
2018-09-08T14:50:36.848Z,95.10
2018-09-08T14:53:07.133Z,95.40
2018-09-08T14:55:37.326Z,95.30
2018-09-08T14:58:44.618Z,95.50
2018-09-08T15:01:14.504Z,95.30
2018-09-08T15:03:44.396Z,95.60
2018-09-08T15:06:15.383Z,95.80
2018-09-08T15:08:46.084Z,95.90
2018-09-08T15:11:17.633Z,95.60
2018-09-08T15:13:47.615Z,95.60
2018-09-08T15:16:18.030Z,95.10
2018-09-08T15:18:49.723Z,95.40
2018-09-08T15:21:20.545Z,95.50
2018-09-08T15:23:52.149Z,95.50
2018-09-08T15:26:22.533Z,95.00
2018-09-08T15:28:52.498Z,95.20
2018-09-08T15:31:22.734Z,95.50
2018-09-08T15:33:52.081Z,94.90
2018-09-08T15:36:21.938Z,95.00
2018-09-08T15:38:51.821Z,95.10
2018-09-08T15:41:21.462Z,95.30
2018-09-08T15:43:51.498Z,95.10
2018-09-08T15:46:22.010Z,95.10
2018-09-08T15:48:51.867Z,94.90
2018-09-08T15:51:22.216Z,95.20
2018-09-08T15:53:51.546Z,95.50
2018-09-08T15:56:22.175Z,94.90
2018-09-08T15:58:52.131Z,95.10
2018-09-08T16:01:22.227Z,95.00
2018-09-08T16:03:52.163Z,95.20
2018-09-08T16:06:22.244Z,95.00
2018-09-08T16:08:52.418Z,95.40
2018-09-08T16:11:22.576Z,94.60
2018-09-08T16:13:52.169Z,95.00
2018-09-08T16:16:21.602Z,95.00
2018-09-08T16:18:51.796Z,95.00
2018-09-08T16:21:22.015Z,94.80
2018-09-08T16:23:51.594Z,94.70
2018-09-08T16:26:21.631Z,94.60
2018-09-08T16:28:52.810Z,94.90
2018-09-08T16:31:24.094Z,94.70
2018-09-08T16:33:53.507Z,94.80
2018-09-08T16:36:23.350Z,94.90
2018-09-08T16:38:53.003Z,95.00
2018-09-08T16:41:22.776Z,94.90
2018-09-08T16:43:52.342Z,95.20
2018-09-08T16:46:22.368Z,95.00
2018-09-08T16:48:51.922Z,95.20
2018-09-08T16:51:21.721Z,95.30
2018-09-08T16:53:51.562Z,95.40
2018-09-08T16:56:21.810Z,95.60
2018-09-08T16:58:51.907Z,95.40
2018-09-08T17:01:21.802Z,95.40
2018-09-08T17:03:51.355Z,95.40
2018-09-08T17:06:21.420Z,95.40
2018-09-08T17:08:51.054Z,95.40
2018-09-08T17:11:20.747Z,95.50
2018-09-08T17:13:51.877Z,95.70
2018-09-08T17:16:21.799Z,96.00
2018-09-08T17:18:51.556Z,95.90
2018-09-08T17:21:21.261Z,96.10
2018-09-08T17:23:51.442Z,96.10
2018-09-08T17:26:21.248Z,96.10
2018-09-08T17:28:51.760Z,96.30
2018-09-08T17:31:21.792Z,96.40
2018-09-08T17:33:51.318Z,96.50
2018-09-08T17:36:21.190Z,96.50
2018-09-08T17:38:51.288Z,96.70
2018-09-08T17:41:21.401Z,96.80
2018-09-08T17:43:51.389Z,96.70
2018-09-08T17:46:21.631Z,96.70
2018-09-08T17:48:51.510Z,97.00
2018-09-08T17:51:21.340Z,97.10
2018-09-08T17:53:51.016Z,97.00
2018-09-08T17:56:21.158Z,97.20
2018-09-08T17:58:51.112Z,97.60
2018-09-08T18:01:21.610Z,97.70
2018-09-08T18:03:52.870Z,97.70
2018-09-08T18:06:22.967Z,97.80
2018-09-08T18:08:54.018Z,98.00
2018-09-08T18:11:24.098Z,98.20
2018-09-08T18:13:53.857Z,98.20
2018-09-08T18:16:23.618Z,98.40
2018-09-08T18:18:54.121Z,98.50
2018-09-08T18:21:24.078Z,98.70
2018-09-08T18:23:54.534Z,98.70
2018-09-08T18:26:24.570Z,98.90
2018-09-08T18:28:54.356Z,99.00
2018-09-08T18:31:24.603Z,99.10
2018-09-08T18:33:54.937Z,99.10
2018-09-08T18:36:25.614Z,99.10
2018-09-08T18:39:09.376Z,99.30
2018-09-08T18:41:39.346Z,99.30
2018-09-08T18:44:09.358Z,99.40
2018-09-08T18:46:39.428Z,99.60
2018-09-08T18:49:09.417Z,99.40
2018-09-08T18:51:39.520Z,99.60
2018-09-08T18:54:09.726Z,99.60
2018-09-08T18:56:39.336Z,99.70
2018-09-08T18:59:09.228Z,99.90
2018-09-08T19:01:40.817Z,99.90
2018-09-08T19:04:10.987Z,99.90
2018-09-08T19:06:41.117Z,99.90
2018-09-08T19:09:11.500Z,99.90
2018-09-08T19:11:41.274Z,99.90
2018-09-08T19:14:16.213Z,99.90
2018-09-08T19:16:46.061Z,99.90
2018-09-08T19:19:16.192Z,99.90
2018-09-08T19:21:46.921Z,99.90
2018-09-08T19:24:22.114Z,99.90
2018-09-08T19:26:52.040Z,99.90
2018-09-08T19:29:28.207Z,99.90
2018-09-08T19:31:57.986Z,99.90
2018-09-08T19:34:27.798Z,99.90
2018-09-08T19:36:59.066Z,99.90
2018-09-08T19:39:29.006Z,99.90
2018-09-08T19:41:58.850Z,99.90
2018-09-08T19:44:29.052Z,99.90
2018-09-08T19:47:04.593Z,99.90
2018-09-08T19:49:34.151Z,99.90
2018-09-08T19:52:03.734Z,99.90
2018-09-08T19:54:34.170Z,99.90
2018-09-08T19:57:09.181Z,99.90
2018-09-08T19:59:38.915Z,99.90
2018-09-08T20:02:09.101Z,99.90
2018-09-08T20:04:38.928Z,99.90
2018-09-08T20:07:08.778Z,99.90
2018-09-08T20:09:38.785Z,99.90
2018-09-08T20:12:08.772Z,99.90
2018-09-08T20:14:38.567Z,99.90
2018-09-08T20:17:08.234Z,99.90
2018-09-08T20:19:38.279Z,99.90
2018-09-08T20:22:09.759Z,99.90
2018-09-08T20:24:39.665Z,99.90
2018-09-08T20:27:09.672Z,99.90
2018-09-08T20:29:39.590Z,99.90
2018-09-08T20:32:09.305Z,99.90
2018-09-08T20:34:39.764Z,99.90
2018-09-08T20:37:09.375Z,99.90
2018-09-08T20:39:38.988Z,99.90
2018-09-08T20:42:08.462Z,99.90
2018-09-08T20:44:38.083Z,99.90
2018-09-08T20:47:07.749Z,99.90
2018-09-08T20:49:38.030Z,99.90
2018-09-08T20:52:08.094Z,99.90
2018-09-08T20:54:38.342Z,99.90
2018-09-08T20:57:08.259Z,99.90
2018-09-08T20:59:38.777Z,99.90
2018-09-08T21:02:08.834Z,99.90
2018-09-08T21:04:38.889Z,99.90
2018-09-08T21:07:10.298Z,99.90
2018-09-08T21:09:41.142Z,99.90
2018-09-08T21:12:10.927Z,99.90
2018-09-08T21:14:40.815Z,99.90
2018-09-08T21:17:10.621Z,99.90
2018-09-08T21:19:40.674Z,99.90
2018-09-08T21:22:10.785Z,99.90
2018-09-08T21:24:40.837Z,99.90
2018-09-08T21:27:11.287Z,99.90
2018-09-08T21:29:41.114Z,99.90
2018-09-08T21:32:10.738Z,99.90
2018-09-08T21:34:40.548Z,99.90
2018-09-08T21:37:10.558Z,99.90
2018-09-08T21:39:40.802Z,99.90
2018-09-08T21:42:10.980Z,99.90
2018-09-08T21:44:41.231Z,99.90
2018-09-08T21:47:11.454Z,99.90
2018-09-08T21:49:41.558Z,99.90
2018-09-08T21:52:11.356Z,99.90
2018-09-08T21:54:41.044Z,99.90
2018-09-08T21:57:11.015Z,99.90
2018-09-08T21:59:40.859Z,99.90
2018-09-08T22:02:11.017Z,99.90
2018-09-08T22:04:40.927Z,99.90
2018-09-08T22:07:10.770Z,99.90
2018-09-08T22:09:41.052Z,99.90
2018-09-08T22:12:12.792Z,99.90
2018-09-08T22:14:42.878Z,99.90
2018-09-08T22:17:12.782Z,99.90
2018-09-08T22:19:42.498Z,99.90
2018-09-08T22:22:12.583Z,99.90
2018-09-08T22:24:42.601Z,99.90
2018-09-08T22:27:12.545Z,99.90
2018-09-08T22:29:42.558Z,99.90
2018-09-08T22:32:14.817Z,99.90
2018-09-08T22:34:44.779Z,99.90
2018-09-08T22:37:14.664Z,99.90
2018-09-08T22:39:44.901Z,99.90
2018-09-08T22:42:14.878Z,99.90
2018-09-08T22:44:44.428Z,99.90
2018-09-08T22:47:14.105Z,99.90
2018-09-08T22:49:44.418Z,99.90
2018-09-08T22:52:14.546Z,99.90
2018-09-08T22:54:44.130Z,99.90
2018-09-08T22:57:14.158Z,99.90
2018-09-08T22:59:43.926Z,99.90
2018-09-08T23:02:19.958Z,99.90
2018-09-08T23:04:55.647Z,99.90
2018-09-08T23:07:25.440Z,99.90
2018-09-08T23:09:55.330Z,99.90
2018-09-08T23:12:25.623Z,99.90
2018-09-08T23:14:55.197Z,99.90
2018-09-08T23:17:25.281Z,99.90
2018-09-08T23:19:54.966Z,99.90
2018-09-08T23:22:26.175Z,99.90
2018-09-08T23:24:56.169Z,99.90
2018-09-08T23:27:25.929Z,99.90
2018-09-08T23:29:55.605Z,99.90
2018-09-08T23:32:25.814Z,99.90
2018-09-08T23:34:55.602Z,99.90
2018-09-08T23:37:25.418Z,99.90
2018-09-08T23:39:55.313Z,99.90
2018-09-08T23:42:24.881Z,99.90
2018-09-08T23:44:54.285Z,99.90
2018-09-08T23:47:24.243Z,99.90
2018-09-08T23:49:54.534Z,99.90
2018-09-08T23:52:24.229Z,99.90
2018-09-08T23:54:53.993Z,99.90
2018-09-08T23:57:23.541Z,99.90
2018-09-08T23:59:53.280Z,99.90
